sensor_id;sensor_type;location;lat;lon;timestamp;P1;durP1;ratioP1;P2;durP2;ratioP2
30080;SDS011;16902;50.816;12.828;2024-02-23T00:01:36;4.15;;;4.05;;
30080;SDS011;16902;50.816;12.828;2024-02-23T00:06:38;4.40;;;4.30;;
30080;SDS011;16902;50.816;12.828;2024-02-23T00:11:41;4.35;;;4.25;;
30080;SDS011;16902;50.816;12.828;2024-02-23T00:16:46;5.38;;;5.07;;
30080;SDS011;16902;50.816;12.828;2024-02-23T00:21:48;4.90;;;4.70;;
30080;SDS011;16902;50.816;12.828;2024-02-23T00:26:51;4.53;;;4.32;;
30080;SDS011;16902;50.816;12.828;2024-02-23T00:31:53;4.60;;;4.50;;
30080;SDS011;16902;50.816;12.828;2024-02-23T00:36:55;4.70;;;4.60;;
30080;SDS011;16902;50.816;12.828;2024-02-23T00:41:57;4.55;;;4.45;;
30080;SDS011;16902;50.816;12.828;2024-02-23T00:46:59;4.75;;;4.65;;
30080;SDS011;16902;50.816;12.828;2024-02-23T00:52:03;4.30;;;4.20;;
30080;SDS011;16902;50.816;12.828;2024-02-23T00:57:05;4.25;;;4.15;;
30080;SDS011;16902;50.816;12.828;2024-02-23T01:02:07;4.20;;;4.10;;
30080;SDS011;16902;50.816;12.828;2024-02-23T01:07:09;3.85;;;3.75;;
30080;SDS011;16902;50.816;12.828;2024-02-23T01:12:12;4.05;;;3.95;;
30080;SDS011;16902;50.816;12.828;2024-02-23T01:17:14;3.92;;;3.83;;
30080;SDS011;16902;50.816;12.828;2024-02-23T01:22:17;3.88;;;3.78;;
30080;SDS011;16902;50.816;12.828;2024-02-23T01:27:19;4.10;;;4.00;;
30080;SDS011;16902;50.816;12.828;2024-02-23T01:32:21;4.40;;;4.30;;
30080;SDS011;16902;50.816;12.828;2024-02-23T01:37:23;5.20;;;5.00;;
30080;SDS011;16902;50.816;12.828;2024-02-23T01:42:26;5.03;;;4.93;;
30080;SDS011;16902;50.816;12.828;2024-02-23T01:47:28;4.68;;;4.55;;
30080;SDS011;16902;50.816;12.828;2024-02-23T01:52:31;4.97;;;4.68;;
30080;SDS011;16902;50.816;12.828;2024-02-23T01:57:33;5.10;;;4.90;;
30080;SDS011;16902;50.816;12.828;2024-02-23T02:02:50;4.90;;;4.70;;
30080;SDS011;16902;50.816;12.828;2024-02-23T02:07:53;4.50;;;4.40;;
30080;SDS011;16902;50.816;12.828;2024-02-23T02:13:04;4.68;;;4.57;;
30080;SDS011;16902;50.816;12.828;2024-02-23T02:18:07;4.75;;;4.65;;
30080;SDS011;16902;50.816;12.828;2024-02-23T02:23:09;4.50;;;4.40;;
30080;SDS011;16902;50.816;12.828;2024-02-23T02:28:12;4.72;;;4.53;;
30080;SDS011;16902;50.816;12.828;2024-02-23T02:33:14;4.68;;;4.57;;
30080;SDS011;16902;50.816;12.828;2024-02-23T02:38:16;5.03;;;4.93;;
30080;SDS011;16902;50.816;12.828;2024-02-23T02:43:18;4.60;;;4.50;;
30080;SDS011;16902;50.816;12.828;2024-02-23T02:48:20;4.63;;;4.53;;
30080;SDS011;16902;50.816;12.828;2024-02-23T02:53:22;4.30;;;4.20;;
30080;SDS011;16902;50.816;12.828;2024-02-23T02:58:24;4.15;;;4.05;;
30080;SDS011;16902;50.816;12.828;2024-02-23T03:03:25;4.30;;;4.20;;
30080;SDS011;16902;50.816;12.828;2024-02-23T03:08:27;5.47;;;5.28;;
30080;SDS011;16902;50.816;12.828;2024-02-23T03:13:29;6.00;;;5.80;;
30080;SDS011;16902;50.816;12.828;2024-02-23T03:18:30;6.35;;;6.15;;
30080;SDS011;16902;50.816;12.828;2024-02-23T03:23:32;6.68;;;6.47;;
30080;SDS011;16902;50.816;12.828;2024-02-23T03:28:34;6.85;;;6.65;;
30080;SDS011;16902;50.816;12.828;2024-02-23T03:33:36;6.70;;;6.50;;
30080;SDS011;16902;50.816;12.828;2024-02-23T03:38:38;7.03;;;6.80;;
30080;SDS011;16902;50.816;12.828;2024-02-23T03:43:40;6.88;;;6.68;;
30080;SDS011;16902;50.816;12.828;2024-02-23T03:48:41;6.85;;;6.65;;
30080;SDS011;16902;50.816;12.828;2024-02-23T03:53:43;5.93;;;5.72;;
30080;SDS011;16902;50.816;12.828;2024-02-23T03:58:45;5.07;;;4.97;;
30080;SDS011;16902;50.816;12.828;2024-02-23T04:03:46;5.10;;;4.95;;
30080;SDS011;16902;50.816;12.828;2024-02-23T04:08:48;5.88;;;5.68;;
30080;SDS011;16902;50.816;12.828;2024-02-23T04:13:51;6.10;;;5.90;;
30080;SDS011;16902;50.816;12.828;2024-02-23T04:18:53;6.70;;;6.50;;
30080;SDS011;16902;50.816;12.828;2024-02-23T04:23:55;7.25;;;7.05;;
30080;SDS011;16902;50.816;12.828;2024-02-23T04:28:57;7.68;;;7.47;;
30080;SDS011;16902;50.816;12.828;2024-02-23T04:33:59;8.45;;;8.15;;
30080;SDS011;16902;50.816;12.828;2024-02-23T04:39:01;8.13;;;7.82;;
30080;SDS011;16902;50.816;12.828;2024-02-23T04:44:02;8.45;;;8.15;;
30080;SDS011;16902;50.816;12.828;2024-02-23T04:49:04;8.93;;;8.63;;
30080;SDS011;16902;50.816;12.828;2024-02-23T04:54:06;9.00;;;8.70;;
30080;SDS011;16902;50.816;12.828;2024-02-23T04:59:07;8.40;;;8.10;;
30080;SDS011;16902;50.816;12.828;2024-02-23T05:04:09;8.82;;;8.52;;
30080;SDS011;16902;50.816;12.828;2024-02-23T05:09:11;9.00;;;8.70;;
30080;SDS011;16902;50.816;12.828;2024-02-23T05:14:13;8.27;;;7.97;;
30080;SDS011;16902;50.816;12.828;2024-02-23T05:19:15;8.10;;;7.80;;
30080;SDS011;16902;50.816;12.828;2024-02-23T05:24:17;7.70;;;7.50;;
30080;SDS011;16902;50.816;12.828;2024-02-23T05:29:19;7.88;;;7.68;;
30080;SDS011;16902;50.816;12.828;2024-02-23T05:34:23;7.60;;;7.20;;
30080;SDS011;16902;50.816;12.828;2024-02-23T05:39:25;6.43;;;6.22;;
30080;SDS011;16902;50.816;12.828;2024-02-23T05:44:27;6.45;;;6.25;;
30080;SDS011;16902;50.816;12.828;2024-02-23T05:49:30;6.32;;;6.13;;
30080;SDS011;16902;50.816;12.828;2024-02-23T05:54:32;6.82;;;6.63;;
30080;SDS011;16902;50.816;12.828;2024-02-23T05:59:33;6.25;;;6.05;;
30080;SDS011;16902;50.816;12.828;2024-02-23T06:04:35;6.57;;;6.38;;
30080;SDS011;16902;50.816;12.828;2024-02-23T06:09:37;6.70;;;6.50;;
30080;SDS011;16902;50.816;12.828;2024-02-23T06:14:39;6.90;;;6.70;;
30080;SDS011;16902;50.816;12.828;2024-02-23T06:19:41;6.97;;;6.78;;
30080;SDS011;16902;50.816;12.828;2024-02-23T06:24:43;6.95;;;6.75;;
30080;SDS011;16902;50.816;12.828;2024-02-23T06:29:44;7.68;;;7.47;;
30080;SDS011;16902;50.816;12.828;2024-02-23T06:34:46;8.32;;;8.02;;
30080;SDS011;16902;50.816;12.828;2024-02-23T06:39:48;7.60;;;7.40;;
30080;SDS011;16902;50.816;12.828;2024-02-23T06:44:55;8.00;;;7.70;;
30080;SDS011;16902;50.816;12.828;2024-02-23T06:49:57;8.20;;;7.90;;
30080;SDS011;16902;50.816;12.828;2024-02-23T06:54:59;8.65;;;8.35;;
30080;SDS011;16902;50.816;12.828;2024-02-23T07:00:01;8.30;;;8.00;;
30080;SDS011;16902;50.816;12.828;2024-02-23T07:05:03;8.38;;;8.07;;
30080;SDS011;16902;50.816;12.828;2024-02-23T07:10:05;8.38;;;8.07;;
30080;SDS011;16902;50.816;12.828;2024-02-23T07:15:08;8.85;;;8.55;;
30080;SDS011;16902;50.816;12.828;2024-02-23T07:20:09;9.23;;;8.93;;
30080;SDS011;16902;50.816;12.828;2024-02-23T07:25:15;8.50;;;8.20;;
30080;SDS011;16902;50.816;12.828;2024-02-23T07:30:17;8.73;;;8.43;;
30080;SDS011;16902;50.816;12.828;2024-02-23T07:35:19;8.15;;;7.85;;
30080;SDS011;16902;50.816;12.828;2024-02-23T07:40:21;8.68;;;8.38;;
30080;SDS011;16902;50.816;12.828;2024-02-23T07:45:23;8.32;;;8.02;;
30080;SDS011;16902;50.816;12.828;2024-02-23T07:50:25;7.88;;;7.68;;
30080;SDS011;16902;50.816;12.828;2024-02-23T07:55:26;7.43;;;7.22;;
30080;SDS011;16902;50.816;12.828;2024-02-23T08:00:28;8.18;;;7.88;;
30080;SDS011;16902;50.816;12.828;2024-02-23T08:05:30;8.90;;;8.60;;
30080;SDS011;16902;50.816;12.828;2024-02-23T08:10:32;8.52;;;8.23;;
30080;SDS011;16902;50.816;12.828;2024-02-23T08:15:34;8.10;;;7.80;;
30080;SDS011;16902;50.816;12.828;2024-02-23T08:20:37;8.65;;;8.35;;
30080;SDS011;16902;50.816;12.828;2024-02-23T08:25:39;9.18;;;8.88;;
30080;SDS011;16902;50.816;12.828;2024-02-23T08:30:40;9.18;;;8.88;;
30080;SDS011;16902;50.816;12.828;2024-02-23T08:35:44;9.23;;;8.93;;
30080;SDS011;16902;50.816;12.828;2024-02-23T08:40:46;10.32;;;9.93;;
30080;SDS011;16902;50.816;12.828;2024-02-23T08:45:48;11.27;;;10.88;;
30080;SDS011;16902;50.816;12.828;2024-02-23T08:50:50;11.95;;;11.55;;
30080;SDS011;16902;50.816;12.828;2024-02-23T08:55:52;12.32;;;11.82;;
30080;SDS011;16902;50.816;12.828;2024-02-23T09:00:54;11.63;;;11.23;;
30080;SDS011;16902;50.816;12.828;2024-02-23T09:05:56;12.40;;;11.90;;
30080;SDS011;16902;50.816;12.828;2024-02-23T09:10:58;13.13;;;12.63;;
30080;SDS011;16902;50.816;12.828;2024-02-23T09:16:00;13.20;;;12.65;;
30080;SDS011;16902;50.816;12.828;2024-02-23T09:21:02;13.43;;;12.93;;
30080;SDS011;16902;50.816;12.828;2024-02-23T09:26:08;13.23;;;12.73;;
30080;SDS011;16902;50.816;12.828;2024-02-23T09:31:13;14.02;;;13.27;;
30080;SDS011;16902;50.816;12.828;2024-02-23T09:36:15;14.40;;;13.80;;
30080;SDS011;16902;50.816;12.828;2024-02-23T09:41:19;13.95;;;13.45;;
30080;SDS011;16902;50.816;12.828;2024-02-23T09:46:22;14.45;;;13.85;;
30080;SDS011;16902;50.816;12.828;2024-02-23T09:51:24;14.30;;;13.73;;
30080;SDS011;16902;50.816;12.828;2024-02-23T09:56:27;14.70;;;14.10;;
30080;SDS011;16902;50.816;12.828;2024-02-23T10:01:31;14.10;;;13.60;;
30080;SDS011;16902;50.816;12.828;2024-02-23T10:06:34;15.02;;;14.43;;
30080;SDS011;16902;50.816;12.828;2024-02-23T10:11:36;14.93;;;14.32;;
30080;SDS011;16902;50.816;12.828;2024-02-23T10:16:38;14.55;;;13.95;;
30080;SDS011;16902;50.816;12.828;2024-02-23T10:21:40;14.38;;;13.77;;
30080;SDS011;16902;50.816;12.828;2024-02-23T10:26:42;14.25;;;13.65;;
30080;SDS011;16902;50.816;12.828;2024-02-23T10:31:44;15.02;;;14.13;;
30080;SDS011;16902;50.816;12.828;2024-02-23T10:36:51;14.63;;;14.02;;
30080;SDS011;16902;50.816;12.828;2024-02-23T10:41:56;15.05;;;14.45;;
30080;SDS011;16902;50.816;12.828;2024-02-23T10:47:03;14.90;;;14.30;;
30080;SDS011;16902;50.816;12.828;2024-02-23T10:52:06;15.02;;;14.43;;
30080;SDS011;16902;50.816;12.828;2024-02-23T10:57:09;15.77;;;15.18;;
30080;SDS011;16902;50.816;12.828;2024-02-23T11:02:12;16.23;;;15.63;;
30080;SDS011;16902;50.816;12.828;2024-02-23T11:07:19;15.70;;;15.10;;
30080;SDS011;16902;50.816;12.828;2024-02-23T11:12:26;16.45;;;15.75;;
30080;SDS011;16902;50.816;12.828;2024-02-23T11:17:31;15.43;;;14.82;;
30080;SDS011;16902;50.816;12.828;2024-02-23T11:22:34;15.48;;;14.88;;
30080;SDS011;16902;50.816;12.828;2024-02-23T11:27:40;15.43;;;14.82;;
30080;SDS011;16902;50.816;12.828;2024-02-23T11:32:45;15.20;;;14.60;;
30080;SDS011;16902;50.816;12.828;2024-02-23T11:37:52;16.02;;;15.32;;
30080;SDS011;16902;50.816;12.828;2024-02-23T11:43:00;16.50;;;15.80;;
30080;SDS011;16902;50.816;12.828;2024-02-23T11:48:04;16.38;;;15.68;;
30080;SDS011;16902;50.816;12.828;2024-02-23T11:53:07;16.50;;;15.70;;
30080;SDS011;16902;50.816;12.828;2024-02-23T11:58:10;16.33;;;15.63;;
30080;SDS011;16902;50.816;12.828;2024-02-23T12:03:19;16.25;;;15.55;;
30080;SDS011;16902;50.816;12.828;2024-02-23T12:08:21;16.45;;;15.75;;
30080;SDS011;16902;50.816;12.828;2024-02-23T12:13:25;15.73;;;15.13;;
30080;SDS011;16902;50.816;12.828;2024-02-23T12:18:28;16.20;;;15.40;;
30080;SDS011;16902;50.816;12.828;2024-02-23T12:28:42;15.65;;;15.05;;
30080;SDS011;16902;50.816;12.828;2024-02-23T12:33:44;16.30;;;15.60;;
30080;SDS011;16902;50.816;12.828;2024-02-23T12:38:50;16.25;;;15.55;;
30080;SDS011;16902;50.816;12.828;2024-02-23T12:43:52;16.30;;;15.60;;
30080;SDS011;16902;50.816;12.828;2024-02-23T12:48:55;16.15;;;15.45;;
30080;SDS011;16902;50.816;12.828;2024-02-23T12:53:57;16.23;;;15.43;;
30080;SDS011;16902;50.816;12.828;2024-02-23T12:58:58;15.88;;;15.18;;
30080;SDS011;16902;50.816;12.828;2024-02-23T13:04:00;15.65;;;15.05;;
30080;SDS011;16902;50.816;12.828;2024-02-23T13:09:02;15.77;;;15.18;;
30080;SDS011;16902;50.816;12.828;2024-02-23T13:14:05;16.52;;;15.82;;
30080;SDS011;16902;50.816;12.828;2024-02-23T13:19:07;16.30;;;15.60;;
30080;SDS011;16902;50.816;12.828;2024-02-23T13:24:11;16.88;;;16.17;;
30080;SDS011;16902;50.816;12.828;2024-02-23T13:29:12;16.70;;;16.00;;
30080;SDS011;16902;50.816;12.828;2024-02-23T13:34:14;16.38;;;15.68;;
30080;SDS011;16902;50.816;12.828;2024-02-23T13:39:18;16.20;;;15.50;;
30080;SDS011;16902;50.816;12.828;2024-02-23T13:44:20;16.58;;;15.88;;
30080;SDS011;16902;50.816;12.828;2024-02-23T13:49:22;16.33;;;15.63;;
30080;SDS011;16902;50.816;12.828;2024-02-23T13:54:24;17.40;;;16.60;;
30080;SDS011;16902;50.816;12.828;2024-02-23T13:59:26;16.50;;;15.80;;
30080;SDS011;16902;50.816;12.828;2024-02-23T14:04:28;16.77;;;16.08;;
30080;SDS011;16902;50.816;12.828;2024-02-23T14:09:30;17.30;;;16.42;;
30080;SDS011;16902;50.816;12.828;2024-02-23T14:14:32;16.20;;;15.50;;
30080;SDS011;16902;50.816;12.828;2024-02-23T14:19:34;16.65;;;15.88;;
30080;SDS011;16902;50.816;12.828;2024-02-23T14:24:39;16.90;;;16.20;;
30080;SDS011;16902;50.816;12.828;2024-02-23T14:29:42;17.42;;;16.63;;
30080;SDS011;16902;50.816;12.828;2024-02-23T14:34:44;16.83;;;16.13;;
30080;SDS011;16902;50.816;12.828;2024-02-23T14:39:47;16.52;;;15.82;;
30080;SDS011;16902;50.816;12.828;2024-02-23T14:44:50;16.15;;;15.45;;
30080;SDS011;16902;50.816;12.828;2024-02-23T14:49:52;16.15;;;15.45;;
30080;SDS011;16902;50.816;12.828;2024-02-23T14:54:54;15.98;;;15.27;;
30080;SDS011;16902;50.816;12.828;2024-02-23T14:59:55;16.40;;;15.70;;
30080;SDS011;16902;50.816;12.828;2024-02-23T15:04:57;15.43;;;14.77;;
30080;SDS011;16902;50.816;12.828;2024-02-23T15:10:00;16.40;;;15.70;;
30080;SDS011;16902;50.816;12.828;2024-02-23T15:15:06;15.35;;;14.70;;
30080;SDS011;16902;50.816;12.828;2024-02-23T15:20:10;16.75;;;16.05;;
30080;SDS011;16902;50.816;12.828;2024-02-23T15:25:12;15.95;;;15.05;;
30080;SDS011;16902;50.816;12.828;2024-02-23T15:30:15;15.25;;;14.65;;
30080;SDS011;16902;50.816;12.828;2024-02-23T15:35:17;15.90;;;15.20;;
30080;SDS011;16902;50.816;12.828;2024-02-23T15:40:19;15.20;;;14.60;;
30080;SDS011;16902;50.816;12.828;2024-02-23T15:45:21;15.40;;;14.80;;
30080;SDS011;16902;50.816;12.828;2024-02-23T15:50:22;15.90;;;15.30;;
30080;SDS011;16902;50.816;12.828;2024-02-23T15:55:44;16.60;;;15.90;;
30080;SDS011;16902;50.816;12.828;2024-02-23T16:00:46;15.73;;;15.05;;
30080;SDS011;16902;50.816;12.828;2024-02-23T16:05:48;15.50;;;14.90;;
30080;SDS011;16902;50.816;12.828;2024-02-23T16:10:51;15.25;;;14.65;;
30080;SDS011;16902;50.816;12.828;2024-02-23T16:15:53;14.98;;;14.27;;
30080;SDS011;16902;50.816;12.828;2024-02-23T16:20:54;14.10;;;13.52;;
30080;SDS011;16902;50.816;12.828;2024-02-23T16:25:56;13.60;;;13.00;;
30080;SDS011;16902;50.816;12.828;2024-02-23T16:30:58;12.77;;;12.25;;
30080;SDS011;16902;50.816;12.828;2024-02-23T16:35:59;12.85;;;12.35;;
30080;SDS011;16902;50.816;12.828;2024-02-23T16:41:02;13.05;;;12.45;;
30080;SDS011;16902;50.816;12.828;2024-02-23T16:46:04;13.05;;;12.55;;
30080;SDS011;16902;50.816;12.828;2024-02-23T16:51:06;14.93;;;14.15;;
30080;SDS011;16902;50.816;12.828;2024-02-23T16:56:08;13.98;;;13.13;;
30080;SDS011;16902;50.816;12.828;2024-02-23T17:01:09;17.92;;;16.42;;
30080;SDS011;16902;50.816;12.828;2024-02-23T17:06:12;12.85;;;12.25;;
30080;SDS011;16902;50.816;12.828;2024-02-23T17:11:13;18.08;;;16.73;;
30080;SDS011;16902;50.816;12.828;2024-02-23T17:16:15;13.07;;;12.48;;
30080;SDS011;16902;50.816;12.828;2024-02-23T17:21:17;12.02;;;11.52;;
30080;SDS011;16902;50.816;12.828;2024-02-23T17:26:19;11.38;;;10.88;;
30080;SDS011;16902;50.816;12.828;2024-02-23T17:31:20;10.95;;;10.55;;
30080;SDS011;16902;50.816;12.828;2024-02-23T17:36:22;10.63;;;10.23;;
30080;SDS011;16902;50.816;12.828;2024-02-23T17:41:24;10.90;;;10.30;;
30080;SDS011;16902;50.816;12.828;2024-02-23T17:46:26;10.68;;;10.27;;
30080;SDS011;16902;50.816;12.828;2024-02-23T17:51:27;10.88;;;10.48;;
30080;SDS011;16902;50.816;12.828;2024-02-23T17:56:29;11.75;;;11.15;;
30080;SDS011;16902;50.816;12.828;2024-02-23T18:01:31;9.82;;;9.35;;
30080;SDS011;16902;50.816;12.828;2024-02-23T18:06:36;9.43;;;9.13;;
30080;SDS011;16902;50.816;12.828;2024-02-23T18:11:38;8.38;;;8.07;;
30080;SDS011;16902;50.816;12.828;2024-02-23T18:16:40;9.43;;;9.02;;
30080;SDS011;16902;50.816;12.828;2024-02-23T18:21:42;8.45;;;8.05;;
30080;SDS011;16902;50.816;12.828;2024-02-23T18:26:44;7.65;;;7.35;;
30080;SDS011;16902;50.816;12.828;2024-02-23T18:31:45;7.80;;;7.40;;
30080;SDS011;16902;50.816;12.828;2024-02-23T18:36:48;8.00;;;7.60;;
30080;SDS011;16902;50.816;12.828;2024-02-23T18:41:49;7.25;;;6.85;;
30080;SDS011;16902;50.816;12.828;2024-02-23T18:46:52;6.78;;;6.40;;
30080;SDS011;16902;50.816;12.828;2024-02-23T18:51:53;6.07;;;5.88;;
30080;SDS011;16902;50.816;12.828;2024-02-23T18:56:55;5.80;;;5.50;;
30080;SDS011;16902;50.816;12.828;2024-02-23T19:01:56;5.95;;;5.55;;
30080;SDS011;16902;50.816;12.828;2024-02-23T19:06:58;5.97;;;5.47;;
30080;SDS011;16902;50.816;12.828;2024-02-23T19:12:00;5.55;;;5.30;;
30080;SDS011;16902;50.816;12.828;2024-02-23T19:17:03;6.15;;;5.85;;
30080;SDS011;16902;50.816;12.828;2024-02-23T19:22:05;5.60;;;5.30;;
30080;SDS011;16902;50.816;12.828;2024-02-23T19:27:06;5.20;;;4.90;;
30080;SDS011;16902;50.816;12.828;2024-02-23T19:32:08;4.18;;;3.97;;
30080;SDS011;16902;50.816;12.828;2024-02-23T19:37:10;4.80;;;4.60;;
30080;SDS011;16902;50.816;12.828;2024-02-23T19:42:12;5.05;;;4.75;;
30080;SDS011;16902;50.816;12.828;2024-02-23T19:47:15;4.90;;;4.68;;
30080;SDS011;16902;50.816;12.828;2024-02-23T19:52:17;4.57;;;4.30;;
30080;SDS011;16902;50.816;12.828;2024-02-23T19:57:18;4.88;;;4.68;;
30080;SDS011;16902;50.816;12.828;2024-02-23T20:02:20;4.75;;;4.55;;
30080;SDS011;16902;50.816;12.828;2024-02-23T20:07:22;5.13;;;4.72;;
30080;SDS011;16902;50.816;12.828;2024-02-23T20:12:24;8.07;;;6.25;;
30080;SDS011;16902;50.816;12.828;2024-02-23T20:17:26;5.07;;;4.78;;
30080;SDS011;16902;50.816;12.828;2024-02-23T20:22:30;4.82;;;4.63;;
30080;SDS011;16902;50.816;12.828;2024-02-23T20:27:32;4.68;;;4.30;;
30080;SDS011;16902;50.816;12.828;2024-02-23T20:32:33;4.05;;;3.75;;
30080;SDS011;16902;50.816;12.828;2024-02-23T20:37:35;6.15;;;5.65;;
30080;SDS011;16902;50.816;12.828;2024-02-23T20:42:39;3.78;;;3.60;;
30080;SDS011;16902;50.816;12.828;2024-02-23T20:47:41;5.20;;;4.75;;
30080;SDS011;16902;50.816;12.828;2024-02-23T20:52:43;3.65;;;3.42;;
30080;SDS011;16902;50.816;12.828;2024-02-23T20:57:45;6.00;;;5.43;;
30080;SDS011;16902;50.816;12.828;2024-02-23T21:02:47;5.70;;;5.20;;
30080;SDS011;16902;50.816;12.828;2024-02-23T21:07:49;7.45;;;6.75;;
30080;SDS011;16902;50.816;12.828;2024-02-23T21:12:51;6.88;;;5.88;;
30080;SDS011;16902;50.816;12.828;2024-02-23T21:17:52;6.07;;;4.88;;
30080;SDS011;16902;50.816;12.828;2024-02-23T21:22:55;7.47;;;6.78;;
30080;SDS011;16902;50.816;12.828;2024-02-23T21:27:57;5.60;;;5.10;;
30080;SDS011;16902;50.816;12.828;2024-02-23T21:32:58;8.60;;;5.60;;
30080;SDS011;16902;50.816;12.828;2024-02-23T21:38:00;4.78;;;4.40;;
30080;SDS011;16902;50.816;12.828;2024-02-23T21:43:03;4.30;;;4.00;;
30080;SDS011;16902;50.816;12.828;2024-02-23T21:48:05;4.88;;;3.65;;
30080;SDS011;16902;50.816;12.828;2024-02-23T21:53:07;3.78;;;3.45;;
30080;SDS011;16902;50.816;12.828;2024-02-23T21:58:09;3.22;;;3.03;;
30080;SDS011;16902;50.816;12.828;2024-02-23T22:03:10;3.17;;;2.97;;
30080;SDS011;16902;50.816;12.828;2024-02-23T22:08:12;3.90;;;3.65;;
30080;SDS011;16902;50.816;12.828;2024-02-23T22:13:14;3.92;;;3.72;;
30080;SDS011;16902;50.816;12.828;2024-02-23T22:18:16;4.18;;;3.88;;
30080;SDS011;16902;50.816;12.828;2024-02-23T22:23:18;4.75;;;3.95;;
30080;SDS011;16902;50.816;12.828;2024-02-23T22:28:20;4.00;;;3.80;;
30080;SDS011;16902;50.816;12.828;2024-02-23T22:33:21;2.22;;;2.22;;
30080;SDS011;16902;50.816;12.828;2024-02-23T22:38:23;3.10;;;2.65;;
30080;SDS011;16902;50.816;12.828;2024-02-23T22:43:25;2.33;;;2.22;;
30080;SDS011;16902;50.816;12.828;2024-02-23T22:48:28;2.97;;;2.75;;
30080;SDS011;16902;50.816;12.828;2024-02-23T22:53:30;2.50;;;2.40;;
30080;SDS011;16902;50.816;12.828;2024-02-23T22:58:35;2.63;;;2.53;;
30080;SDS011;16902;50.816;12.828;2024-02-23T23:03:37;3.15;;;3.00;;
30080;SDS011;16902;50.816;12.828;2024-02-23T23:08:39;2.15;;;2.03;;
30080;SDS011;16902;50.816;12.828;2024-02-23T23:13:41;2.78;;;2.67;;
30080;SDS011;16902;50.816;12.828;2024-02-23T23:18:42;3.05;;;2.85;;
30080;SDS011;16902;50.816;12.828;2024-02-23T23:23:44;2.75;;;2.55;;
30080;SDS011;16902;50.816;12.828;2024-02-23T23:28:46;3.20;;;2.20;;
30080;SDS011;16902;50.816;12.828;2024-02-23T23:33:48;2.25;;;2.10;;
30080;SDS011;16902;50.816;12.828;2024-02-23T23:38:50;1.90;;;1.90;;
30080;SDS011;16902;50.816;12.828;2024-02-23T23:43:51;2.03;;;1.92;;
30080;SDS011;16902;50.816;12.828;2024-02-23T23:48:53;2.88;;;2.67;;
30080;SDS011;16902;50.816;12.828;2024-02-23T23:53:55;1.73;;;1.70;;
30080;SDS011;16902;50.816;12.828;2024-02-23T23:58:59;2.13;;;2.10;;
